Penrose, Utah
Current Conditions -  °F | °C
As of 2:55 AM on Sunday 23 Nov 2014 (Local Time) from KBMC Reporting Station
Overcast Overcast  
Wind Chill: 31°   Ceiling: 4100
Heat Index: 36°   Visibility: 10mi
Dew Point: 29°   Wind: 6mph
Humidity: 77%   Direction: 330°NNW
Pressure: 30.01"   Gusts: NA
Location:  41.6836°N, 112.26°W
Report Text: KBMC 230955Z AUTO 33005KT 10SM SCT035 BKN041 OVC070 02/M02 A3001 RMK AO1 T00201017
Loading
Personal Weather Stations






























Interactive Weather Map New forecast layout! Learn more

10-Day Weather Forecast

Advertisements
Track Severe Weather on mobile